Ainsworth, NE

3:15 AM CST on December 06, 2019 (GMT -0600)
Ainsworth Municipal

Weather History for KANW - November, 2019

Change the Weather History Date:

Tuesday, November 12, 2019

  Actual Average Record
Temperature  
Mean Temperature 26 °F -  
Max Temperature 50 °F 46 °F 78 °F (1999)
Min Temperature 3 °F 25 °F 1 °F (2014)
Degree Days  
Heating Degree Days 38    
Moisture  
Dew Point 18 °F    
Average Humidity 69    
Maximum Humidity 85    
Minimum Humidity 43    
Precipitation  
Precipitation 0.00 in - - ()
Sea Level Pressure  
Sea Level Pressure 30.09 in    
Wind  
Wind Speed 11 mph ()    
Max Wind Speed 22 mph    
Max Gust Speed 31 mph    
Visibility 10.0 miles    
Events      
Averages and records for this station are not official NWS values.
T = Trace of Precipitation, MM = Missing Value Source: Averaged Metar Reports

Daily Weather History Graph

Daily Weather History Graph

Search for Another Location

Airport or City:

Astronomy

Nov. 12, 2019 Rise Set
Actual Time 7:27 AM CST 5:20 PM CST
Civil Twilight 6:57 AM CST 5:50 PM CST
Nautical Twilight 6:23 AM CST 6:24 PM CST
Astronomical Twilight 5:50 AM CST 6:57 PM CST
Moon 5:48 PM CST (11/12) 7:19 AM CST (11/12)
Length of Visible Light 10h 53m
Length of Day
9h 53m
Full, 100% of the Moon is Illuminated
Nov 12
Full
Nov 19
Last Quarter
Nov 26
New
Dec 4
First Quarter
Dec 11
Full

Hourly Weather History & Observations

Time (CST) Temp. Windchill Dew Point Humidity Pressure Visibility Wind Dir Wind Speed Gust Speed Precip Events Conditions
12:15 AM 3.0 °F -11.5 °F -0.6 °F 85% 30.52 in 10.0 mi SSW 9.2 mph - N/A   Clear
12:35 AM 5.5 °F -7.4 °F 1.8 °F 84% 30.51 in 10.0 mi SSW 8.1 mph - N/A   Clear
12:55 AM 5.0 °F -9.1 °F 1.0 °F 84% 30.50 in 10.0 mi SSW 9.2 mph - N/A   Clear
1:15 AM 5.7 °F -9.1 °F 1.4 °F 82% 30.48 in 10.0 mi SSW 10.4 mph - N/A   Clear
1:35 AM 5.7 °F -8.2 °F 1.8 °F 84% 30.46 in 10.0 mi SSW 9.2 mph - N/A   Clear
1:55 AM 5.9 °F -8.0 °F 1.6 °F 82% 30.45 in 10.0 mi SSW 9.2 mph - N/A   Clear
2:15 AM 6.3 °F -7.5 °F 1.8 °F 82% 30.43 in 10.0 mi SSW 9.2 mph - N/A   Clear
2:35 AM 7.3 °F -6.2 °F 2.7 °F 81% 30.43 in 10.0 mi SSW 9.2 mph - N/A   Clear
2:55 AM 7.3 °F -7.9 °F 2.5 °F 81% 30.42 in 10.0 mi South 11.5 mph - N/A   Clear
3:15 AM 6.8 °F -6.9 °F 1.9 °F 80% 30.40 in 10.0 mi South 9.2 mph - N/A   Clear
3:35 AM 5.9 °F -7.0 °F 1.4 °F 82% 30.39 in 10.0 mi SSW 8.1 mph - N/A   Clear
3:55 AM 6.8 °F -6.9 °F 2.1 °F 81% 30.37 in 10.0 mi SSW 9.2 mph - N/A   Clear
4:15 AM 6.6 °F -8.0 °F 2.1 °F 82% 30.35 in 10.0 mi South 10.4 mph - N/A   Clear
4:35 AM 7.7 °F -7.4 °F 2.8 °F 81% 30.33 in 10.0 mi SSW 11.5 mph - N/A   Clear
4:55 AM 8.1 °F -7.7 °F 3.2 °F 81% 30.32 in 10.0 mi SSW 12.7 mph - N/A   Clear
5:15 AM 8.6 °F -7.7 °F 3.6 °F 80% 30.31 in 10.0 mi SSW 13.8 mph - N/A   Clear
5:35 AM 9.9 °F -4.7 °F 4.5 °F 79% 30.29 in 10.0 mi SSW 11.5 mph - N/A   Clear
5:55 AM 10.8 °F -5.6 °F 5.4 °F 79% 30.27 in 10.0 mi SSW 15.0 mph - N/A   Clear
6:15 AM 11.3 °F -6.0 °F 5.9 °F 79% 30.24 in 10.0 mi SSW 17.3 mph - N/A   Clear
6:35 AM 12.2 °F -4.8 °F 6.8 °F 79% 30.23 in 10.0 mi SSW 17.3 mph - N/A   Clear
6:55 AM 12.6 °F -4.4 °F 7.5 °F 80% 30.22 in 10.0 mi SSW 17.3 mph - N/A   Clear
7:15 AM 13.1 °F -3.7 °F 8.1 °F 80% 30.21 in 10.0 mi SSW 17.3 mph - N/A   Clear
7:35 AM 13.1 °F -2.6 °F 8.2 °F 81% 30.21 in 10.0 mi SSW 15.0 mph - N/A   Clear
7:55 AM 14.5 °F -1.8 °F 9.5 °F 80% 30.19 in 10.0 mi SSW 17.3 mph 24.2 mph N/A   Clear
8:15 AM 15.4 °F -0.6 °F 10.0 °F 79% 30.18 in 10.0 mi SSW 17.3 mph - N/A   Clear
8:35 AM 17.4 °F 1.9 °F 11.1 °F 76% 30.17 in 10.0 mi SSW 17.3 mph 24.2 mph N/A   Clear
8:55 AM 18.7 °F 3.1 °F 12.0 °F 75% 30.16 in 10.0 mi SSW 18.4 mph 24.2 mph N/A   Clear
9:15 AM 21.2 °F 5.6 °F 14.0 °F 74% 30.14 in 10.0 mi SSW 20.7 mph - N/A   Clear
9:35 AM 23.2 °F 8.6 °F 15.4 °F 72% 30.12 in 10.0 mi SSW 19.6 mph 27.6 mph N/A   Clear
9:55 AM 25.9 °F 11.4 °F 17.2 °F 70% 30.10 in 10.0 mi SSW 21.9 mph 27.6 mph N/A   Clear
10:15 AM 27.5 °F 13.9 °F 18.7 °F 69% 30.08 in 10.0 mi SSW 20.7 mph 27.6 mph N/A   Clear
10:35 AM 29.7 °F 17.4 °F 19.8 °F 67% 30.07 in 10.0 mi SSW 18.4 mph 23.0 mph N/A   Clear
10:55 AM 31.1 °F 18.9 °F 20.5 °F 65% 30.06 in 10.0 mi SSW 19.6 mph 25.3 mph N/A   Clear
11:15 AM 32.9 °F 22.0 °F 21.7 °F 64% 30.05 in 10.0 mi SSW 17.3 mph 27.6 mph N/A   Clear
11:35 AM 34.5 °F 23.1 °F 21.9 °F 60% 30.03 in 10.0 mi SW 20.7 mph 31.1 mph N/A   Clear
11:50 AM 35.2 °F 24.7 °F 22.5 °F 60% 30.03 in 10.0 mi SW 18.4 mph 26.5 mph N/A   Clear
12:15 PM 36.9 °F 26.8 °F 23.4 °F 58% 30.01 in 10.0 mi SW 18.4 mph 27.6 mph N/A   Clear
12:35 PM 38.3 °F 29.3 °F 24.8 °F 58% 30.01 in 10.0 mi SW 16.1 mph 23.0 mph N/A   Clear
12:55 PM 39.2 °F 30.2 °F 25.3 °F 58% 29.99 in 10.0 mi SW 17.3 mph 24.2 mph N/A   Clear
1:15 PM 40.6 °F 32.7 °F 26.6 °F 57% 29.99 in 10.0 mi SW 15.0 mph 21.9 mph N/A   Clear
1:35 PM 41.9 °F 33.7 °F 27.7 °F 57% 29.97 in 10.0 mi SW 17.3 mph 24.2 mph N/A   Clear
1:55 PM 43.7 °F 35.2 °F 27.5 °F 53% 29.96 in 10.0 mi SW 20.7 mph 26.5 mph N/A   Clear
2:35 PM 46.6 °F - 29.1 °F 51% 29.93 in 10.0 mi SW 19.6 mph 27.6 mph N/A   Clear
2:55 PM 48.2 °F - 29.1 °F 48% 29.92 in 10.0 mi WSW 16.1 mph - N/A   Clear
3:15 PM 49.3 °F - 30.4 °F 48% 29.92 in 10.0 mi WSW 13.8 mph 19.6 mph N/A   Clear
3:35 PM 50.0 °F - 29.1 °F 45% 29.92 in 10.0 mi WSW 13.8 mph - N/A   Clear
3:55 PM 48.2 °F - 30.2 °F 50% 29.92 in 10.0 mi WSW 8.1 mph - N/A   Clear
4:15 PM 49.3 °F - 29.3 °F 46% 29.91 in 10.0 mi WSW 9.2 mph - N/A   Clear
4:35 PM 48.6 °F - 27.1 °F 43% 29.90 in 10.0 mi SW 9.2 mph - N/A   Clear
4:55 PM 46.4 °F 43.5 °F 26.1 °F 45% 29.90 in 10.0 mi SW 5.8 mph - N/A   Clear
5:15 PM 40.5 °F 35.8 °F 28.4 °F 62% 29.90 in 10.0 mi South 6.9 mph - N/A   Clear
5:35 PM 39.6 °F 33.5 °F 29.8 °F 68% 29.89 in 10.0 mi SSW 9.2 mph - N/A   Clear
5:55 PM 40.5 °F 34.6 °F 29.8 °F 66% 29.88 in 10.0 mi SSW 9.2 mph - N/A   Clear
6:35 PM 41.2 °F 36.6 °F 27.9 °F 59% 29.89 in 10.0 mi SW 6.9 mph - N/A   Clear
7:15 PM 39.4 °F 33.8 °F 27.3 °F 62% 29.88 in 10.0 mi SW 8.1 mph - N/A   Clear
7:35 PM 38.1 °F 32.3 °F 27.3 °F 65% 29.88 in 10.0 mi SW 8.1 mph - N/A   Clear
7:55 PM 39.2 °F 32.5 °F 27.5 °F 63% 29.86 in 10.0 mi SW 10.4 mph - N/A   Clear
8:15 PM 39.2 °F 33.0 °F 27.5 °F 63% 29.85 in 10.0 mi SW 9.2 mph - N/A   Clear
8:35 PM 38.5 °F 32.1 °F 27.9 °F 66% 29.85 in 10.0 mi SSW 9.2 mph - N/A   Clear
8:55 PM 38.8 °F 32.1 °F 28.0 °F 65% 29.84 in 10.0 mi SW 10.4 mph - N/A   Clear
9:15 PM 36.9 °F 30.7 °F 27.9 °F 70% 29.84 in 10.0 mi SW 8.1 mph - N/A   Clear
9:35 PM 36.9 °F 29.6 °F 28.0 °F 70% 29.83 in 10.0 mi SW 10.4 mph - N/A   Clear
9:55 PM 36.1 °F 31.4 °F 28.0 °F 72% 29.83 in 10.0 mi SW 5.8 mph - N/A   Clear
10:15 PM 36.3 °F 33.7 °F 28.2 °F 72% 29.83 in 10.0 mi South 3.5 mph - N/A   Clear
10:35 PM 36.3 °F 30.1 °F 28.8 °F 74% 29.83 in 10.0 mi SW 8.1 mph - N/A   Scattered Clouds
10:55 PM 38.5 °F 32.7 °F 28.4 °F 67% 29.82 in 10.0 mi SW 8.1 mph - N/A   Mostly Cloudy
11:15 PM 38.3 °F 33.9 °F 28.9 °F 69% 29.82 in 10.0 mi SW 5.8 mph - N/A   Overcast
11:35 PM 38.3 °F 34.8 °F 29.1 °F 70% 29.82 in 10.0 mi WSW 4.6 mph - N/A   Overcast
11:55 PM 37.8 °F 34.2 °F 29.3 °F 72% 29.81 in 10.0 mi WSW 4.6 mph - N/A   Overcast